Detall de PIREP

Printer-friendly versionPDF version

[2014/01/14 08:20:00]
Flight IATA:CT2104
Pilot Number:041
Company ICAO:CAT
Aircraft Type:AT72/F
PAX:49
Departing Airport: LEVC
Destination Airport: LEBB
Alternate Airport:LEMD
Online: VATSIM
Route:CENTA A33 CJN R10 PPN G23 CEGAM
Flight Level:FL190
No Slew and time accel
No pause
Crash detect
Detect pilot in Cockpit between each 30 and 45 minutes
08:20 Zero fuel Weight: 38956 Lbs, Fuel Weight: 3864 Lbs
08:20 VATSIM:LEVC 140730Z 26013G24KT 230V320 9999 FEW025 11/03 Q1014 NOSIG
08:20 VATSIM:LEBB 140730Z VRB03KT 9999 -RA OVC033 08/05 Q1010 TEMPO 3000 RA
08:20 VOICE CATALONIAN
08:25 Parking Brakes off
08:30 Take-off
08:30 Take off Weight: 42760 Lbs
08:30 Wind: 263º @ 013 Knots Heading: 292º
08:30 POS N39º 29´ 15´´ W000º 28´ 38´´
08:30 Gear Up: 133 Knots
08:30 Flaps:1 at 133 Knots
08:31 Flaps:0 at 147 Knots
08:45 Wind:321º@039 Knots Heading: 302º Ground Speed: 214 Knots Altitude 15413 ft
08:49 TOC
08:49 Fuel Weight: 3220 Lb
09:00 Wind:328º@052 Knots Heading: 320º Ground Speed: 231 Knots Altitude 19035 ft
09:15 Wind:328º@052 Knots Heading: 015º Ground Speed: 252 Knots Altitude 19002 ft
09:21 TOD
09:21 Fuel Weight: 2294 Lb
09:30 Wind:315º@042 Knots Heading: 018º Ground Speed: 265 Knots Altitude 11062 ft
09:45 Wind:327º@008 Knots Heading: 332º Ground Speed: 238 Knots Altitude 6007 ft
09:49 Flaps:1 at 191 Knots
09:49 Gear Down: 154 Knots
09:50 Flaps:2 at 149 Knots
09:54 TouchDown:Rate -109 ft/min Speed: 99 Knots
09:54 Flaps:0 at 22 Knots
09:54 VATSIM:LEBB 140930Z VRB01KT 2500 RA BKN015 BKN025 08/07 Q1011 NOSIG
09:54 Land
09:54 Wind:059º@001 Knots
09:54 Heading: 295º
09:54 Flight Duration: 01:24
09:54 Landing Weight: 40591 Lbs
09:54 POS N43º 18´ 12´´ W002º 55´ 01´´
09:58 Parking brakes on
09:58 Block to Block Duration: 01:33
09:58 Final Fuel: 1609 Lbls
09:58 Spent Fuel: 2255 Lbls
09:58 Flight Length: 323 NM
09:58 TOD Land Length: 126 NM

Exportar CSV

Powered by Drupal - Modified by Danger4k